sensor_id;sensor_type;location;lat;lon;timestamp;P1;durP1;ratioP1;P2;durP2;ratioP2
7833;SDS011;3962;42.696;23.354;2023-04-25T00:02:07;5.20;;;3.90;;
7833;SDS011;3962;42.696;23.354;2023-04-25T00:04:34;4.80;;;4.30;;
7833;SDS011;3962;42.696;23.354;2023-04-25T00:07:04;6.77;;;4.40;;
7833;SDS011;3962;42.696;23.354;2023-04-25T00:09:31;4.87;;;4.07;;
7833;SDS011;3962;42.696;23.354;2023-04-25T00:11:58;5.60;;;4.53;;
7833;SDS011;3962;42.696;23.354;2023-04-25T00:14:26;5.53;;;4.37;;
7833;SDS011;3962;42.696;23.354;2023-04-25T00:16:53;6.10;;;4.27;;
7833;SDS011;3962;42.696;23.354;2023-04-25T00:19:21;5.77;;;4.50;;
7833;SDS011;3962;42.696;23.354;2023-04-25T00:21:48;6.10;;;4.70;;
7833;SDS011;3962;42.696;23.354;2023-04-25T00:24:16;7.67;;;5.20;;
7833;SDS011;3962;42.696;23.354;2023-04-25T00:26:43;6.33;;;5.10;;
7833;SDS011;3962;42.696;23.354;2023-04-25T00:29:10;5.47;;;4.90;;
7833;SDS011;3962;42.696;23.354;2023-04-25T00:31:36;5.37;;;4.87;;
7833;SDS011;3962;42.696;23.354;2023-04-25T00:34:03;7.57;;;5.33;;
7833;SDS011;3962;42.696;23.354;2023-04-25T00:36:30;7.43;;;5.27;;
7833;SDS011;3962;42.696;23.354;2023-04-25T00:38:57;6.37;;;5.30;;
7833;SDS011;3962;42.696;23.354;2023-04-25T00:41:26;6.57;;;5.20;;
7833;SDS011;3962;42.696;23.354;2023-04-25T00:43:53;6.17;;;5.10;;
7833;SDS011;3962;42.696;23.354;2023-04-25T00:46:22;6.67;;;4.57;;
7833;SDS011;3962;42.696;23.354;2023-04-25T00:48:48;5.97;;;4.83;;
7833;SDS011;3962;42.696;23.354;2023-04-25T00:51:19;7.70;;;4.93;;
7833;SDS011;3962;42.696;23.354;2023-04-25T00:53:47;5.53;;;4.43;;
7833;SDS011;3962;42.696;23.354;2023-04-25T00:56:15;5.17;;;4.00;;
7833;SDS011;3962;42.696;23.354;2023-04-25T00:58:44;7.17;;;4.93;;
7833;SDS011;3962;42.696;23.354;2023-04-25T01:01:11;5.57;;;4.43;;
7833;SDS011;3962;42.696;23.354;2023-04-25T01:03:39;8.87;;;4.80;;
7833;SDS011;3962;42.696;23.354;2023-04-25T01:06:07;5.60;;;4.73;;
7833;SDS011;3962;42.696;23.354;2023-04-25T01:08:35;4.87;;;4.20;;
7833;SDS011;3962;42.696;23.354;2023-04-25T01:11:03;6.77;;;5.47;;
7833;SDS011;3962;42.696;23.354;2023-04-25T01:13:30;6.30;;;4.23;;
7833;SDS011;3962;42.696;23.354;2023-04-25T01:15:59;5.40;;;4.20;;
7833;SDS011;3962;42.696;23.354;2023-04-25T01:18:26;6.30;;;4.23;;
7833;SDS011;3962;42.696;23.354;2023-04-25T01:20:53;6.00;;;4.87;;
7833;SDS011;3962;42.696;23.354;2023-04-25T01:23:22;6.10;;;5.20;;
7833;SDS011;3962;42.696;23.354;2023-04-25T01:25:49;7.60;;;5.60;;
7833;SDS011;3962;42.696;23.354;2023-04-25T01:28:17;7.57;;;5.90;;
7833;SDS011;3962;42.696;23.354;2023-04-25T01:30:44;5.20;;;4.67;;
7833;SDS011;3962;42.696;23.354;2023-04-25T01:33:12;6.83;;;5.60;;
7833;SDS011;3962;42.696;23.354;2023-04-25T01:35:40;6.90;;;5.27;;
7833;SDS011;3962;42.696;23.354;2023-04-25T01:38:11;7.57;;;4.73;;
7833;SDS011;3962;42.696;23.354;2023-04-25T01:40:40;5.30;;;4.80;;
7833;SDS011;3962;42.696;23.354;2023-04-25T01:43:07;9.67;;;5.33;;
7833;SDS011;3962;42.696;23.354;2023-04-25T01:45:36;9.97;;;5.20;;
7833;SDS011;3962;42.696;23.354;2023-04-25T01:48:05;6.87;;;5.37;;
7833;SDS011;3962;42.696;23.354;2023-04-25T01:50:32;6.90;;;5.17;;
7833;SDS011;3962;42.696;23.354;2023-04-25T01:52:59;5.33;;;4.77;;
7833;SDS011;3962;42.696;23.354;2023-04-25T01:55:26;5.80;;;4.60;;
7833;SDS011;3962;42.696;23.354;2023-04-25T01:57:55;4.90;;;4.40;;
7833;SDS011;3962;42.696;23.354;2023-04-25T02:00:21;5.70;;;4.77;;
7833;SDS011;3962;42.696;23.354;2023-04-25T02:02:49;4.53;;;4.10;;
7833;SDS011;3962;42.696;23.354;2023-04-25T02:05:15;5.77;;;4.07;;
7833;SDS011;3962;42.696;23.354;2023-04-25T02:07:43;5.10;;;4.30;;
7833;SDS011;3962;42.696;23.354;2023-04-25T02:10:10;7.67;;;4.37;;
7833;SDS011;3962;42.696;23.354;2023-04-25T02:12:37;4.90;;;4.30;;
7833;SDS011;3962;42.696;23.354;2023-04-25T02:15:06;7.10;;;4.40;;
7833;SDS011;3962;42.696;23.354;2023-04-25T02:17:33;4.73;;;4.27;;
7833;SDS011;3962;42.696;23.354;2023-04-25T02:20:00;6.63;;;5.20;;
7833;SDS011;3962;42.696;23.354;2023-04-25T02:22:27;5.10;;;4.60;;
7833;SDS011;3962;42.696;23.354;2023-04-25T02:24:55;6.73;;;4.20;;
7833;SDS011;3962;42.696;23.354;2023-04-25T02:27:22;5.77;;;4.63;;
7833;SDS011;3962;42.696;23.354;2023-04-25T02:29:49;5.07;;;4.07;;
7833;SDS011;3962;42.696;23.354;2023-04-25T02:32:17;5.00;;;4.50;;
7833;SDS011;3962;42.696;23.354;2023-04-25T02:34:44;4.70;;;4.20;;
7833;SDS011;3962;42.696;23.354;2023-04-25T02:37:10;4.90;;;4.33;;
7833;SDS011;3962;42.696;23.354;2023-04-25T02:39:40;5.90;;;4.80;;
7833;SDS011;3962;42.696;23.354;2023-04-25T02:42:06;6.30;;;4.77;;
7833;SDS011;3962;42.696;23.354;2023-04-25T02:44:33;5.87;;;4.70;;
7833;SDS011;3962;42.696;23.354;2023-04-25T02:47:00;7.93;;;5.93;;
7833;SDS011;3962;42.696;23.354;2023-04-25T02:49:28;7.07;;;5.10;;
7833;SDS011;3962;42.696;23.354;2023-04-25T02:51:55;5.70;;;4.80;;
7833;SDS011;3962;42.696;23.354;2023-04-25T02:54:22;5.73;;;4.43;;
7833;SDS011;3962;42.696;23.354;2023-04-25T02:56:49;8.53;;;4.87;;
7833;SDS011;3962;42.696;23.354;2023-04-25T02:59:16;6.43;;;5.23;;
7833;SDS011;3962;42.696;23.354;2023-04-25T03:01:42;7.57;;;5.37;;
7833;SDS011;3962;42.696;23.354;2023-04-25T03:04:09;6.23;;;4.93;;
7833;SDS011;3962;42.696;23.354;2023-04-25T03:06:37;8.37;;;5.40;;
7833;SDS011;3962;42.696;23.354;2023-04-25T03:09:04;5.73;;;5.10;;
7833;SDS011;3962;42.696;23.354;2023-04-25T03:11:31;9.40;;;5.73;;
7833;SDS011;3962;42.696;23.354;2023-04-25T03:13:58;7.80;;;6.63;;
7833;SDS011;3962;42.696;23.354;2023-04-25T03:16:25;17.53;;;10.43;;
7833;SDS011;3962;42.696;23.354;2023-04-25T03:18:51;14.33;;;9.30;;
7833;SDS011;3962;42.696;23.354;2023-04-25T03:21:18;13.80;;;8.37;;
7833;SDS011;3962;42.696;23.354;2023-04-25T03:23:46;12.03;;;8.07;;
7833;SDS011;3962;42.696;23.354;2023-04-25T03:26:13;14.90;;;8.20;;
7833;SDS011;3962;42.696;23.354;2023-04-25T03:28:40;9.83;;;6.87;;
7833;SDS011;3962;42.696;23.354;2023-04-25T03:31:07;7.53;;;6.73;;
7833;SDS011;3962;42.696;23.354;2023-04-25T03:33:34;9.30;;;6.80;;
7833;SDS011;3962;42.696;23.354;2023-04-25T03:36:01;8.63;;;6.60;;
7833;SDS011;3962;42.696;23.354;2023-04-25T03:38:28;9.70;;;7.57;;
7833;SDS011;3962;42.696;23.354;2023-04-25T03:40:57;9.83;;;6.80;;
7833;SDS011;3962;42.696;23.354;2023-04-25T03:43:24;12.80;;;7.63;;
7833;SDS011;3962;42.696;23.354;2023-04-25T03:45:51;12.47;;;8.07;;
7833;SDS011;3962;42.696;23.354;2023-04-25T03:48:17;11.30;;;8.17;;
7833;SDS011;3962;42.696;23.354;2023-04-25T03:50:46;12.43;;;8.80;;
7833;SDS011;3962;42.696;23.354;2023-04-25T03:53:13;13.50;;;10.50;;
7833;SDS011;3962;42.696;23.354;2023-04-25T03:55:40;14.53;;;11.37;;
7833;SDS011;3962;42.696;23.354;2023-04-25T03:58:08;15.77;;;11.50;;
7833;SDS011;3962;42.696;23.354;2023-04-25T04:00:35;16.57;;;12.43;;
7833;SDS011;3962;42.696;23.354;2023-04-25T04:03:02;16.90;;;10.77;;
7833;SDS011;3962;42.696;23.354;2023-04-25T04:05:29;17.83;;;12.27;;
7833;SDS011;3962;42.696;23.354;2023-04-25T04:07:56;17.47;;;13.33;;
7833;SDS011;3962;42.696;23.354;2023-04-25T04:10:23;22.50;;;16.20;;
7833;SDS011;3962;42.696;23.354;2023-04-25T04:12:51;22.20;;;14.97;;
7833;SDS011;3962;42.696;23.354;2023-04-25T04:15:19;17.60;;;12.60;;
7833;SDS011;3962;42.696;23.354;2023-04-25T04:17:46;13.93;;;9.73;;
7833;SDS011;3962;42.696;23.354;2023-04-25T04:20:14;11.53;;;8.60;;
7833;SDS011;3962;42.696;23.354;2023-04-25T04:22:41;12.70;;;9.40;;
7833;SDS011;3962;42.696;23.354;2023-04-25T04:25:08;13.13;;;9.13;;
7833;SDS011;3962;42.696;23.354;2023-04-25T04:27:36;12.67;;;10.30;;
7833;SDS011;3962;42.696;23.354;2023-04-25T04:30:04;16.67;;;11.83;;
7833;SDS011;3962;42.696;23.354;2023-04-25T04:32:33;12.93;;;9.90;;
7833;SDS011;3962;42.696;23.354;2023-04-25T04:35:03;15.60;;;10.30;;
7833;SDS011;3962;42.696;23.354;2023-04-25T04:37:31;15.90;;;10.67;;
7833;SDS011;3962;42.696;23.354;2023-04-25T04:39:59;16.07;;;11.20;;
7833;SDS011;3962;42.696;23.354;2023-04-25T04:42:30;12.60;;;9.70;;
7833;SDS011;3962;42.696;23.354;2023-04-25T04:44:57;12.73;;;9.83;;
7833;SDS011;3962;42.696;23.354;2023-04-25T04:47:26;16.10;;;10.33;;
7833;SDS011;3962;42.696;23.354;2023-04-25T04:49:58;17.13;;;11.93;;
7833;SDS011;3962;42.696;23.354;2023-04-25T04:52:25;19.73;;;10.77;;
7833;SDS011;3962;42.696;23.354;2023-04-25T04:54:52;16.83;;;11.93;;
7833;SDS011;3962;42.696;23.354;2023-04-25T04:57:19;18.80;;;11.07;;
7833;SDS011;3962;42.696;23.354;2023-04-25T04:59:46;17.37;;;12.03;;
7833;SDS011;3962;42.696;23.354;2023-04-25T05:02:13;17.27;;;11.17;;
7833;SDS011;3962;42.696;23.354;2023-04-25T05:04:39;16.87;;;13.17;;
7833;SDS011;3962;42.696;23.354;2023-04-25T05:07:08;12.37;;;9.37;;
7833;SDS011;3962;42.696;23.354;2023-04-25T05:09:35;14.83;;;10.10;;
7833;SDS011;3962;42.696;23.354;2023-04-25T05:12:01;13.53;;;9.33;;
7833;SDS011;3962;42.696;23.354;2023-04-25T05:14:28;14.97;;;9.37;;
7833;SDS011;3962;42.696;23.354;2023-04-25T05:16:55;11.30;;;8.47;;
7833;SDS011;3962;42.696;23.354;2023-04-25T05:19:23;13.30;;;8.80;;
7833;SDS011;3962;42.696;23.354;2023-04-25T05:21:50;14.47;;;9.37;;
7833;SDS011;3962;42.696;23.354;2023-04-25T05:24:18;11.23;;;9.10;;
7833;SDS011;3962;42.696;23.354;2023-04-25T05:26:45;18.37;;;9.37;;
7833;SDS011;3962;42.696;23.354;2023-04-25T05:29:12;14.87;;;9.07;;
7833;SDS011;3962;42.696;23.354;2023-04-25T05:31:39;12.63;;;9.33;;
7833;SDS011;3962;42.696;23.354;2023-04-25T05:34:06;14.53;;;8.73;;
7833;SDS011;3962;42.696;23.354;2023-04-25T05:36:33;11.93;;;9.23;;
7833;SDS011;3962;42.696;23.354;2023-04-25T05:39:00;12.87;;;9.77;;
7833;SDS011;3962;42.696;23.354;2023-04-25T05:41:30;13.50;;;9.27;;
7833;SDS011;3962;42.696;23.354;2023-04-25T05:43:57;10.87;;;8.63;;
7833;SDS011;3962;42.696;23.354;2023-04-25T05:46:23;20.97;;;12.10;;
7833;SDS011;3962;42.696;23.354;2023-04-25T05:48:50;21.70;;;13.73;;
7833;SDS011;3962;42.696;23.354;2023-04-25T05:51:17;9.97;;;6.93;;
7833;SDS011;3962;42.696;23.354;2023-04-25T05:53:44;11.83;;;6.77;;
7833;SDS011;3962;42.696;23.354;2023-04-25T05:56:11;9.77;;;7.00;;
7833;SDS011;3962;42.696;23.354;2023-04-25T05:58:40;10.40;;;4.70;;
7833;SDS011;3962;42.696;23.354;2023-04-25T06:01:07;8.37;;;5.47;;
7833;SDS011;3962;42.696;23.354;2023-04-25T06:03:35;8.00;;;5.87;;
7833;SDS011;3962;42.696;23.354;2023-04-25T06:06:03;9.00;;;7.00;;
7833;SDS011;3962;42.696;23.354;2023-04-25T06:08:31;11.93;;;7.90;;
7833;SDS011;3962;42.696;23.354;2023-04-25T06:10:58;8.47;;;7.33;;
7833;SDS011;3962;42.696;23.354;2023-04-25T06:13:25;10.23;;;7.70;;
7833;SDS011;3962;42.696;23.354;2023-04-25T06:15:54;10.17;;;7.33;;
7833;SDS011;3962;42.696;23.354;2023-04-25T06:18:21;10.00;;;7.63;;
7833;SDS011;3962;42.696;23.354;2023-04-25T06:20:48;10.13;;;7.10;;
7833;SDS011;3962;42.696;23.354;2023-04-25T06:23:17;10.97;;;7.10;;
7833;SDS011;3962;42.696;23.354;2023-04-25T06:25:45;11.13;;;7.40;;
7833;SDS011;3962;42.696;23.354;2023-04-25T06:28:12;13.87;;;7.77;;
7833;SDS011;3962;42.696;23.354;2023-04-25T06:30:40;10.33;;;8.03;;
7833;SDS011;3962;42.696;23.354;2023-04-25T06:33:10;10.67;;;7.47;;
7833;SDS011;3962;42.696;23.354;2023-04-25T06:35:39;11.33;;;8.63;;
7833;SDS011;3962;42.696;23.354;2023-04-25T06:38:05;13.40;;;9.00;;
7833;SDS011;3962;42.696;23.354;2023-04-25T06:40:33;11.43;;;8.40;;
7833;SDS011;3962;42.696;23.354;2023-04-25T06:42:59;12.30;;;8.90;;
7833;SDS011;3962;42.696;23.354;2023-04-25T06:45:26;17.70;;;9.23;;
7833;SDS011;3962;42.696;23.354;2023-04-25T06:47:53;13.33;;;9.13;;
7833;SDS011;3962;42.696;23.354;2023-04-25T06:50:21;15.37;;;9.20;;
7833;SDS011;3962;42.696;23.354;2023-04-25T06:52:48;15.20;;;9.67;;
7833;SDS011;3962;42.696;23.354;2023-04-25T06:55:15;13.07;;;8.37;;
7833;SDS011;3962;42.696;23.354;2023-04-25T06:57:42;12.00;;;8.60;;
7833;SDS011;3962;42.696;23.354;2023-04-25T07:00:09;16.60;;;9.17;;
7833;SDS011;3962;42.696;23.354;2023-04-25T07:02:37;10.17;;;8.27;;
7833;SDS011;3962;42.696;23.354;2023-04-25T07:05:04;14.93;;;8.60;;
7833;SDS011;3962;42.696;23.354;2023-04-25T07:07:33;15.13;;;9.93;;
7833;SDS011;3962;42.696;23.354;2023-04-25T07:09:59;17.43;;;8.73;;
7833;SDS011;3962;42.696;23.354;2023-04-25T07:12:26;14.43;;;8.23;;
7833;SDS011;3962;42.696;23.354;2023-04-25T07:14:53;15.83;;;7.70;;
7833;SDS011;3962;42.696;23.354;2023-04-25T07:17:20;11.50;;;7.50;;
7833;SDS011;3962;42.696;23.354;2023-04-25T07:19:47;12.60;;;7.80;;
7833;SDS011;3962;42.696;23.354;2023-04-25T07:22:14;28.27;;;9.23;;
7833;SDS011;3962;42.696;23.354;2023-04-25T07:24:42;14.67;;;7.77;;
7833;SDS011;3962;42.696;23.354;2023-04-25T07:27:12;16.93;;;8.30;;
7833;SDS011;3962;42.696;23.354;2023-04-25T07:29:39;28.07;;;9.13;;
7833;SDS011;3962;42.696;23.354;2023-04-25T07:32:07;18.50;;;7.70;;
7833;SDS011;3962;42.696;23.354;2023-04-25T07:34:33;20.77;;;11.90;;
7833;SDS011;3962;42.696;23.354;2023-04-25T07:37:02;13.43;;;8.40;;
7833;SDS011;3962;42.696;23.354;2023-04-25T07:39:29;18.37;;;9.33;;
7833;SDS011;3962;42.696;23.354;2023-04-25T07:41:57;19.70;;;8.93;;
7833;SDS011;3962;42.696;23.354;2023-04-25T07:44:25;27.10;;;8.90;;
7833;SDS011;3962;42.696;23.354;2023-04-25T07:46:52;10.03;;;7.10;;
7833;SDS011;3962;42.696;23.354;2023-04-25T07:49:19;22.50;;;8.93;;
7833;SDS011;3962;42.696;23.354;2023-04-25T07:51:48;23.30;;;8.97;;
7833;SDS011;3962;42.696;23.354;2023-04-25T07:54:15;15.13;;;7.93;;
7833;SDS011;3962;42.696;23.354;2023-04-25T07:56:42;27.07;;;9.10;;
7833;SDS011;3962;42.696;23.354;2023-04-25T07:59:10;15.73;;;8.43;;
7833;SDS011;3962;42.696;23.354;2023-04-25T08:01:37;31.10;;;9.70;;
7833;SDS011;3962;42.696;23.354;2023-04-25T08:04:04;23.63;;;10.00;;
7833;SDS011;3962;42.696;23.354;2023-04-25T08:06:31;17.67;;;9.93;;
7833;SDS011;3962;42.696;23.354;2023-04-25T08:08:58;21.57;;;9.13;;
7833;SDS011;3962;42.696;23.354;2023-04-25T08:11:25;19.77;;;10.00;;
7833;SDS011;3962;42.696;23.354;2023-04-25T08:13:59;18.47;;;10.20;;
7833;SDS011;3962;42.696;23.354;2023-04-25T08:16:35;13.80;;;8.13;;
7833;SDS011;3962;42.696;23.354;2023-04-25T08:19:02;17.87;;;8.27;;
7833;SDS011;3962;42.696;23.354;2023-04-25T08:21:30;18.00;;;8.33;;
7833;SDS011;3962;42.696;23.354;2023-04-25T08:23:57;13.13;;;7.87;;
7833;SDS011;3962;42.696;23.354;2023-04-25T08:26:24;19.97;;;7.50;;
7833;SDS011;3962;42.696;23.354;2023-04-25T08:28:51;17.17;;;8.10;;
7833;SDS011;3962;42.696;23.354;2023-04-25T08:31:18;12.03;;;6.90;;
7833;SDS011;3962;42.696;23.354;2023-04-25T08:33:47;13.53;;;7.07;;
7833;SDS011;3962;42.696;23.354;2023-04-25T08:36:17;7.93;;;5.67;;
7833;SDS011;3962;42.696;23.354;2023-04-25T08:38:43;10.57;;;6.27;;
7833;SDS011;3962;42.696;23.354;2023-04-25T08:41:12;5.30;;;4.40;;
7833;SDS011;3962;42.696;23.354;2023-04-25T08:43:41;15.70;;;8.33;;
7833;SDS011;3962;42.696;23.354;2023-04-25T08:46:10;11.43;;;8.67;;
7833;SDS011;3962;42.696;23.354;2023-04-25T08:48:38;12.07;;;8.77;;
7833;SDS011;3962;42.696;23.354;2023-04-25T08:51:10;12.47;;;9.47;;
7833;SDS011;3962;42.696;23.354;2023-04-25T08:53:42;13.30;;;9.37;;
7833;SDS011;3962;42.696;23.354;2023-04-25T08:56:10;15.87;;;9.73;;
7833;SDS011;3962;42.696;23.354;2023-04-25T08:58:39;15.03;;;11.07;;
7833;SDS011;3962;42.696;23.354;2023-04-25T09:01:07;17.67;;;11.33;;
7833;SDS011;3962;42.696;23.354;2023-04-25T09:03:34;20.80;;;10.27;;
7833;SDS011;3962;42.696;23.354;2023-04-25T09:06:02;9.67;;;7.27;;
7833;SDS011;3962;42.696;23.354;2023-04-25T09:08:31;11.17;;;6.83;;
7833;SDS011;3962;42.696;23.354;2023-04-25T09:10:58;8.87;;;7.27;;
7833;SDS011;3962;42.696;23.354;2023-04-25T09:13:25;11.07;;;6.67;;
7833;SDS011;3962;42.696;23.354;2023-04-25T09:15:53;13.13;;;7.77;;
7833;SDS011;3962;42.696;23.354;2023-04-25T09:18:21;7.17;;;6.17;;
7833;SDS011;3962;42.696;23.354;2023-04-25T09:20:50;7.63;;;6.33;;
7833;SDS011;3962;42.696;23.354;2023-04-25T09:23:18;8.40;;;6.50;;
7833;SDS011;3962;42.696;23.354;2023-04-25T09:25:48;6.43;;;5.60;;
7833;SDS011;3962;42.696;23.354;2023-04-25T09:28:16;7.30;;;5.80;;
7833;SDS011;3962;42.696;23.354;2023-04-25T09:30:49;7.57;;;6.27;;
7833;SDS011;3962;42.696;23.354;2023-04-25T09:33:15;8.50;;;6.27;;
7833;SDS011;3962;42.696;23.354;2023-04-25T09:35:43;6.73;;;5.30;;
7833;SDS011;3962;42.696;23.354;2023-04-25T09:38:12;9.93;;;6.23;;
7833;SDS011;3962;42.696;23.354;2023-04-25T09:40:43;7.13;;;5.60;;
7833;SDS011;3962;42.696;23.354;2023-04-25T09:43:22;8.33;;;6.03;;
7833;SDS011;3962;42.696;23.354;2023-04-25T09:45:51;10.33;;;6.17;;
7833;SDS011;3962;42.696;23.354;2023-04-25T09:48:25;8.67;;;5.13;;
7833;SDS011;3962;42.696;23.354;2023-04-25T09:51:09;7.10;;;4.80;;
7833;SDS011;3962;42.696;23.354;2023-04-25T09:53:40;6.47;;;4.77;;
7833;SDS011;3962;42.696;23.354;2023-04-25T09:56:09;6.87;;;4.83;;
7833;SDS011;3962;42.696;23.354;2023-04-25T09:58:39;8.67;;;5.13;;
7833;SDS011;3962;42.696;23.354;2023-04-25T10:01:07;5.33;;;4.00;;
7833;SDS011;3962;42.696;23.354;2023-04-25T10:03:35;5.93;;;4.20;;
7833;SDS011;3962;42.696;23.354;2023-04-25T10:06:06;7.30;;;4.10;;
7833;SDS011;3962;42.696;23.354;2023-04-25T10:08:36;10.87;;;4.40;;
7833;SDS011;3962;42.696;23.354;2023-04-25T10:11:05;5.00;;;3.67;;
7833;SDS011;3962;42.696;23.354;2023-04-25T10:13:33;5.23;;;3.57;;
7833;SDS011;3962;42.696;23.354;2023-04-25T10:16:02;13.00;;;4.20;;
7833;SDS011;3962;42.696;23.354;2023-04-25T10:18:31;7.10;;;4.70;;
7833;SDS011;3962;42.696;23.354;2023-04-25T10:20:59;15.73;;;5.17;;
7833;SDS011;3962;42.696;23.354;2023-04-25T10:23:28;7.50;;;3.73;;
7833;SDS011;3962;42.696;23.354;2023-04-25T10:25:56;9.83;;;4.27;;
7833;SDS011;3962;42.696;23.354;2023-04-25T10:28:23;5.90;;;3.47;;
7833;SDS011;3962;42.696;23.354;2023-04-25T10:30:58;9.03;;;3.77;;
7833;SDS011;3962;42.696;23.354;2023-04-25T10:33:36;4.03;;;2.27;;
7833;SDS011;3962;42.696;23.354;2023-04-25T10:36:10;5.93;;;2.43;;
7833;SDS011;3962;42.696;23.354;2023-04-25T10:38:39;6.97;;;2.90;;
7833;SDS011;3962;42.696;23.354;2023-04-25T10:41:08;3.17;;;2.20;;
7833;SDS011;3962;42.696;23.354;2023-04-25T10:43:38;4.73;;;2.40;;
7833;SDS011;3962;42.696;23.354;2023-04-25T10:46:13;5.83;;;2.93;;
7833;SDS011;3962;42.696;23.354;2023-04-25T10:48:47;4.33;;;2.73;;
7833;SDS011;3962;42.696;23.354;2023-04-25T10:51:19;5.13;;;2.00;;
7833;SDS011;3962;42.696;23.354;2023-04-25T10:53:56;3.30;;;2.73;;
7833;SDS011;3962;42.696;23.354;2023-04-25T10:56:25;5.67;;;3.77;;
7833;SDS011;3962;42.696;23.354;2023-04-25T10:59:02;6.80;;;2.47;;
7833;SDS011;3962;42.696;23.354;2023-04-25T11:01:35;4.13;;;2.90;;
7833;SDS011;3962;42.696;23.354;2023-04-25T11:04:04;7.70;;;4.20;;
7833;SDS011;3962;42.696;23.354;2023-04-25T11:06:35;3.83;;;2.40;;
7833;SDS011;3962;42.696;23.354;2023-04-25T11:09:12;5.03;;;2.23;;
7833;SDS011;3962;42.696;23.354;2023-04-25T11:11:40;6.23;;;2.63;;
7833;SDS011;3962;42.696;23.354;2023-04-25T11:14:08;3.20;;;2.00;;
7833;SDS011;3962;42.696;23.354;2023-04-25T11:16:35;2.93;;;2.10;;
7833;SDS011;3962;42.696;23.354;2023-04-25T11:19:04;5.53;;;2.00;;
7833;SDS011;3962;42.696;23.354;2023-04-25T11:21:30;4.20;;;1.80;;
7833;SDS011;3962;42.696;23.354;2023-04-25T11:23:58;4.67;;;1.80;;
7833;SDS011;3962;42.696;23.354;2023-04-25T11:26:26;1.67;;;1.20;;
7833;SDS011;3962;42.696;23.354;2023-04-25T11:28:57;5.93;;;1.90;;
7833;SDS011;3962;42.696;23.354;2023-04-25T11:31:25;6.37;;;2.63;;
7833;SDS011;3962;42.696;23.354;2023-04-25T11:33:53;3.27;;;1.60;;
7833;SDS011;3962;42.696;23.354;2023-04-25T11:36:22;7.03;;;2.00;;
7833;SDS011;3962;42.696;23.354;2023-04-25T11:38:50;3.10;;;1.70;;
7833;SDS011;3962;42.696;23.354;2023-04-25T11:41:19;3.03;;;1.80;;
7833;SDS011;3962;42.696;23.354;2023-04-25T11:43:48;4.27;;;1.43;;
7833;SDS011;3962;42.696;23.354;2023-04-25T11:46:17;1.33;;;1.23;;
7833;SDS011;3962;42.696;23.354;2023-04-25T11:48:45;1.90;;;1.67;;
7833;SDS011;3962;42.696;23.354;2023-04-25T11:51:15;3.33;;;1.93;;
7833;SDS011;3962;42.696;23.354;2023-04-25T11:53:45;4.40;;;1.57;;
7833;SDS011;3962;42.696;23.354;2023-04-25T11:56:12;3.90;;;1.70;;
7833;SDS011;3962;42.696;23.354;2023-04-25T11:58:58;2.20;;;1.50;;
7833;SDS011;3962;42.696;23.354;2023-04-25T12:01:29;1.93;;;1.57;;
7833;SDS011;3962;42.696;23.354;2023-04-25T12:03:57;2.67;;;1.43;;
7833;SDS011;3962;42.696;23.354;2023-04-25T12:06:27;5.33;;;2.10;;
7833;SDS011;3962;42.696;23.354;2023-04-25T12:09:03;2.93;;;1.60;;
7833;SDS011;3962;42.696;23.354;2023-04-25T12:11:30;1.47;;;1.20;;
7833;SDS011;3962;42.696;23.354;2023-04-25T12:14:01;1.50;;;1.30;;
7833;SDS011;3962;42.696;23.354;2023-04-25T12:16:29;11.90;;;2.87;;
7833;SDS011;3962;42.696;23.354;2023-04-25T12:19:07;1.20;;;1.10;;
7833;SDS011;3962;42.696;23.354;2023-04-25T12:21:35;1.57;;;1.37;;
7833;SDS011;3962;42.696;23.354;2023-04-25T12:24:13;2.93;;;1.37;;
7833;SDS011;3962;42.696;23.354;2023-04-25T12:26:51;5.67;;;2.63;;
7833;SDS011;3962;42.696;23.354;2023-04-25T12:29:20;1.50;;;1.40;;
7833;SDS011;3962;42.696;23.354;2023-04-25T12:31:48;3.13;;;1.43;;
7833;SDS011;3962;42.696;23.354;2023-04-25T12:34:17;2.00;;;1.70;;
7833;SDS011;3962;42.696;23.354;2023-04-25T12:36:44;4.70;;;1.90;;
7833;SDS011;3962;42.696;23.354;2023-04-25T12:39:16;11.17;;;3.20;;
7833;SDS011;3962;42.696;23.354;2023-04-25T12:41:43;7.13;;;2.50;;
7833;SDS011;3962;42.696;23.354;2023-04-25T12:44:10;3.70;;;2.30;;
7833;SDS011;3962;42.696;23.354;2023-04-25T12:46:37;3.20;;;1.93;;
7833;SDS011;3962;42.696;23.354;2023-04-25T12:49:05;4.33;;;2.17;;
7833;SDS011;3962;42.696;23.354;2023-04-25T12:51:33;2.20;;;1.70;;
7833;SDS011;3962;42.696;23.354;2023-04-25T12:54:00;5.93;;;2.30;;
7833;SDS011;3962;42.696;23.354;2023-04-25T12:56:29;3.57;;;2.17;;
7833;SDS011;3962;42.696;23.354;2023-04-25T12:58:56;3.27;;;2.23;;
7833;SDS011;3962;42.696;23.354;2023-04-25T13:01:23;4.57;;;2.00;;
7833;SDS011;3962;42.696;23.354;2023-04-25T13:03:50;5.27;;;2.00;;
7833;SDS011;3962;42.696;23.354;2023-04-25T13:06:18;3.10;;;2.00;;
7833;SDS011;3962;42.696;23.354;2023-04-25T13:08:46;3.40;;;1.90;;
7833;SDS011;3962;42.696;23.354;2023-04-25T13:11:12;4.40;;;2.40;;
7833;SDS011;3962;42.696;23.354;2023-04-25T13:13:41;4.00;;;1.90;;
7833;SDS011;3962;42.696;23.354;2023-04-25T13:16:08;5.33;;;2.53;;
7833;SDS011;3962;42.696;23.354;2023-04-25T13:18:35;4.20;;;2.30;;
7833;SDS011;3962;42.696;23.354;2023-04-25T13:21:02;3.30;;;2.50;;
7833;SDS011;3962;42.696;23.354;2023-04-25T13:23:29;5.27;;;2.10;;
7833;SDS011;3962;42.696;23.354;2023-04-25T13:25:56;3.47;;;2.17;;
7833;SDS011;3962;42.696;23.354;2023-04-25T13:28:25;3.93;;;2.23;;
7833;SDS011;3962;42.696;23.354;2023-04-25T13:30:54;3.07;;;2.57;;
7833;SDS011;3962;42.696;23.354;2023-04-25T13:33:21;3.80;;;2.43;;
7833;SDS011;3962;42.696;23.354;2023-04-25T13:35:49;6.83;;;3.13;;
7833;SDS011;3962;42.696;23.354;2023-04-25T13:38:19;6.77;;;3.00;;
7833;SDS011;3962;42.696;23.354;2023-04-25T13:40:47;5.60;;;3.77;;
7833;SDS011;3962;42.696;23.354;2023-04-25T13:43:14;4.50;;;3.50;;
7833;SDS011;3962;42.696;23.354;2023-04-25T13:45:41;5.03;;;4.10;;
7833;SDS011;3962;42.696;23.354;2023-04-25T13:48:11;5.93;;;3.60;;
7833;SDS011;3962;42.696;23.354;2023-04-25T13:50:38;4.60;;;3.07;;
7833;SDS011;3962;42.696;23.354;2023-04-25T13:53:05;4.07;;;3.30;;
7833;SDS011;3962;42.696;23.354;2023-04-25T13:55:33;4.57;;;3.17;;
7833;SDS011;3962;42.696;23.354;2023-04-25T13:58:00;4.33;;;3.43;;
7833;SDS011;3962;42.696;23.354;2023-04-25T14:00:32;7.40;;;3.90;;
7833;SDS011;3962;42.696;23.354;2023-04-25T14:03:00;6.83;;;3.47;;
7833;SDS011;3962;42.696;23.354;2023-04-25T14:05:31;5.47;;;3.30;;
7833;SDS011;3962;42.696;23.354;2023-04-25T14:08:00;4.83;;;2.70;;
7833;SDS011;3962;42.696;23.354;2023-04-25T14:10:26;3.10;;;2.77;;
7833;SDS011;3962;42.696;23.354;2023-04-25T14:12:53;3.80;;;2.97;;
7833;SDS011;3962;42.696;23.354;2023-04-25T14:15:21;5.43;;;2.93;;
7833;SDS011;3962;42.696;23.354;2023-04-25T14:17:49;3.80;;;2.43;;
7833;SDS011;3962;42.696;23.354;2023-04-25T14:20:16;2.40;;;2.20;;
7833;SDS011;3962;42.696;23.354;2023-04-25T14:22:47;9.03;;;2.73;;
7833;SDS011;3962;42.696;23.354;2023-04-25T14:25:14;3.07;;;2.33;;
7833;SDS011;3962;42.696;23.354;2023-04-25T14:27:41;3.17;;;2.37;;
7833;SDS011;3962;42.696;23.354;2023-04-25T14:30:10;3.33;;;2.07;;
7833;SDS011;3962;42.696;23.354;2023-04-25T14:32:43;3.13;;;1.80;;
7833;SDS011;3962;42.696;23.354;2023-04-25T14:35:10;2.60;;;1.97;;
7833;SDS011;3962;42.696;23.354;2023-04-25T14:37:37;6.80;;;2.00;;
7833;SDS011;3962;42.696;23.354;2023-04-25T14:40:07;2.40;;;2.03;;
7833;SDS011;3962;42.696;23.354;2023-04-25T14:42:37;5.90;;;2.00;;
7833;SDS011;3962;42.696;23.354;2023-04-25T14:45:04;4.73;;;1.97;;
7833;SDS011;3962;42.696;23.354;2023-04-25T14:47:32;1.83;;;1.73;;
7833;SDS011;3962;42.696;23.354;2023-04-25T14:49:59;3.33;;;2.40;;
7833;SDS011;3962;42.696;23.354;2023-04-25T14:52:27;2.80;;;1.97;;
7833;SDS011;3962;42.696;23.354;2023-04-25T14:54:54;3.47;;;2.30;;
7833;SDS011;3962;42.696;23.354;2023-04-25T14:57:22;2.83;;;1.87;;
7833;SDS011;3962;42.696;23.354;2023-04-25T14:59:49;3.00;;;2.27;;
7833;SDS011;3962;42.696;23.354;2023-04-25T15:02:16;2.63;;;2.20;;